METAR Data
IDs: Format: Raw Decoded Include TAF

Data at: 0141 UTC 26 Apr 2019

PAOR 260053Z 06008KT 020V090 10SM FEW060 SCT080 BKN100 07/M10 A3006 RMK AO2 SLP207 VIRGA ALQDS T00721100 PNO
PAOR 252353Z VRB04KT 10SM SCT080 SCT110 SCT130 08/M12 A3007 RMK AO2 SLP208 VIRGA ALQDS T00831117 10083 20022 58007 PNO
PAOR 252253Z 36006KT 10SM SCT080 SCT110 SCT130 07/M11 A3008 RMK AO2 SLP212 VIRGA ALL QUADS T00721106 PNO
PAOR 252153Z 09010G16KT 10SM SCT060 SCT080 07/M10 A3009 RMK AO2 SLP213 VIRGA ALL QUADS T00721100 PNO
PAOR 252053Z 10SM SCT060 SCT100 SCT180 06/M12 A3009 RMK AO2 SLP215 DSNT SH N-E VCSH NE T00611117 58010 PNO
PAOR 251953Z 00000KT 10SM SCT060 SCT100 SCT210 06/M08 A3011 RMK AO2 SLP218 VIRGA N-E T00561083 PNO
PAOR 251853Z VRB04KT 10SM FEW060 FEW140 FEW210 03/M08 A3012 RMK AO2 SLP224 VIRGA E T00331083 PNO
PAOR 251753Z VRB04KT 10SM FEW070 FEW120 FEW210 02/M08 A3012 RMK AO2 SLP226 I6000 T00221083 10022 21072 58003 PNO
PAOR 251653Z 09004KT 10SM FEW070 FEW120 FEW180 00/M08 A3013 RMK AO2 SLP229 T00001083 PNO
PAOR 251553Z 00000KT 10SM FEW180 M02/M08 A3013 RMK AO2 SLP232 T10221083 PNO
PAOR 251453Z 00000KT 10SM FEW180 M04/M08 A3013 RMK AO2 SLP231 I3000 T10441083 53001 PNO
PAOR 251353Z 00000KT 10SM FEW100 M07/M09 A3013 RMK AO2 SLP232 I1000 T10721094 PNO
PAOR 251253Z 00000KT 10SM FEW100 M07/M09 A3013 RMK AO2 SLP233 T10671089 PNO
PAOR 251153Z 00000KT 10SM FEW050 SCT070 SCT100 M06/M08 A3013 RMK AO2 SLP232 T10561083 10022 21056 50005 PNO
PAOR 251053Z 24004KT 10SM FEW050 SCT070 SCT100 M04/M08 A3013 RMK AO2 SLP232 T10391078 PNO
PAOR 250953Z 00000KT 10SM FEW050 SCT070 SCT095 M03/M07 A3012 RMK AO2 SLP228 T10331072 PNO
PAOR 250853Z 00000KT 10SM FEW050 SCT070 SCT095 M02/M07 A3012 RMK AO2 SLP224 T10221067 400781067 53005 PNO
PAOR 250753Z 00000KT 10SM FEW050 SCT075 SCT095 00/M07 A3011 RMK AO2 SLP220 T00001067 PNO
PAOR 250653Z 35003KT 10SM SCT075 SCT090 BKN110 01/M07 A3010 RMK AO2 SLP219 T00111067 PNO
PAOR 250553Z 33006KT 10SM SCT075 SCT090 BKN110 02/M07 A3010 RMK AO2 SLP219 VIRGA E-SE NW T00171067 10078 20017 53015 PNO
PAOR 250453Z 00000KT 10SM FEW065 SCT090 BKN110 BKN150 03/M09 A3008 RMK AO2 SLP211 VIRGA ALQDS T00331089 PNO
PAOR 250353Z 05005KT 10SM FEW070 SCT090 SCT110 BKN150 04/M11 A3006 RMK AO2 SLP205 VIRGA ALQDS VCSH NE T00441111 PNO
PAOR 250253Z VRB03KT 10SM FEW070 SCT090 SCT110 BKN150 07/M14 A3005 RMK AO2 SLP204 VIRGA ALQDS T00671139 55000 PNO
PAOR 250153Z 16006KT 10SM SCT075 SCT090 BKN110 BKN220 07/M12 A3005 RMK AO2 SLP205 VIRGA ALQDS T00671117 PNO
PAOR 250053Z 00000KT 10SM SCT070 SCT080 BKN220 06/M13 A3005 RMK AO2 SLP204 VIRGA ALQDS T00611128 PNO
PAOR 242353Z 06008KT 10SM SCT070 SCT085 SCT220 06/M12 A3005 RMK AO2 SLP204 VIRGA ALL QUADS T00561122 10078 20011 55001 PNO
PAOR 242253Z VRB03KT 10SM SCT075 SCT240 06/M12 A3005 RMK AO2 SLP202 VIRGA ALL QUADS T00611117 PNO
PAOR 242153Z VRB03KT 10SM SCT055 SCT240 06/M12 A3005 RMK AO2 SLP202 VIRGA S T00561117 PNO
PAOR 242053Z 10004KT 10SM SCT055 SCT240 05/M11 A3006 RMK AO2 SLP203 T00501111 51006 PNO
PAOR 241953Z 32004KT 10SM SCT060 SCT240 04/M11 A3005 RMK AO2 SLP202 T00391111 PNO
PAOR 241853Z VRB03KT 10SM SCT060 SCT220 03/M10 A3004 RMK AO2 SLP202 T00281100 PNO
PAOR 241753Z VRB03KT 10SM FEW060 SCT220 01/M06 A3004 RMK AO2 SLP199 I6000 T00111061 10011 21067 51013 PNO
PAOR 241653Z 00000KT 10SM FEW070 SCT220 M01/M06 A3003 RMK AO2 SLP198 T10061056 PNO
PAOR 241553Z 00000KT 10SM FEW055 FEW070 SCT180 M01/M05 A3002 RMK AO2 SLP192 T10111050 PNO
PAOR 241453Z 25003KT 10SM FEW055 FEW070 SCT180 M04/M07 A3000 RMK AO2 SLP187 I3000 T10441067 51020 PNO
PAOR 241353Z 00000KT 10SM FEW045 SCT070 SCT180 M06/M08 A2998 RMK AO2 SLP184 I1000 T10611083 PNO